Time;durP1;ratioP1;P1;durP2;ratioP2;P2;SDS_P1;SDS_P2;PMS_P1;PMS_P2;Temp;Humidity;BMP_temperature;BMP_pressure;BME280_temperature;BME280_humidity;BME280_pressure;Samples;Min_cycle;Max_cycle;Signal;HPM_P1;HPM_P2
2022/04/21 00:01:31;;;;;;;10.70;9.60;;;;;;;3.85;100.00;100802.76;1692624;83;21472;-78
2022/04/21 00:03:59;;;;;;;11.60;9.40;;;;;;;3.78;100.00;100803.50;1693426;83;21043;-81
2022/04/21 00:06:28;;;;;;;10.03;9.03;;;;;;;3.71;100.00;100800.81;1694933;83;21528;-77
2022/04/21 00:08:55;;;;;;;11.33;10.03;;;;;;;3.63;100.00;100803.70;1701733;83;21051;-77
2022/04/21 00:11:24;;;;;;;11.25;10.00;;;;;;;3.56;100.00;100802.30;1702066;83;21050;-76
2022/04/21 00:13:53;;;;;;;12.25;9.90;;;;;;;3.48;100.00;100806.47;1701847;84;21175;-79
2022/04/21 00:16:21;;;;;;;10.65;9.60;;;;;;;3.44;100.00;100809.27;1701874;83;21129;-79
2022/04/21 00:18:50;;;;;;;11.40;9.55;;;;;;;3.43;100.00;100809.70;1702517;83;21070;-77
2022/04/21 00:21:18;;;;;;;11.85;9.98;;;;;;;3.46;100.00;100816.02;1701724;83;21176;-78
2022/04/21 00:23:47;;;;;;;11.03;9.95;;;;;;;3.51;100.00;100818.84;1702121;83;21505;-78
2022/04/21 00:26:15;;;;;;;11.40;10.20;;;;;;;3.58;100.00;100824.11;1701789;83;21560;-77
2022/04/21 00:28:44;;;;;;;12.70;9.75;;;;;;;3.62;100.00;100821.80;1702367;83;21021;-77
2022/04/21 00:31:14;;;;;;;11.18;9.73;;;;;;;3.68;100.00;100828.44;1700807;84;21372;-77
2022/04/21 00:33:43;;;;;;;13.23;10.70;;;;;;;3.72;100.00;100826.95;1713930;82;21032;-78
2022/04/21 00:36:10;;;;;;;12.33;11.00;;;;;;;3.78;100.00;100827.12;1705539;82;21146;-79
2022/04/21 00:38:39;;;;;;;11.38;10.18;;;;;;;3.84;100.00;100826.02;1704870;83;21077;-77
2022/04/21 00:41:07;;;;;;;12.35;11.05;;;;;;;3.89;100.00;100830.08;1704742;83;21060;-77
2022/04/21 00:43:36;;;;;;;12.82;10.88;;;;;;;3.93;100.00;100832.89;1704661;83;21696;-78
2022/04/21 00:46:06;;;;;;;13.05;10.63;;;;;;;3.97;100.00;100836.17;1704256;83;21020;-79
2022/04/21 00:48:35;;;;;;;11.80;10.60;;;;;;;3.99;100.00;100829.68;1704866;83;21127;-79
2022/04/21 00:51:04;;;;;;;12.03;10.43;;;;;;;4.02;100.00;100830.37;1713130;82;21524;-80
2022/04/21 00:53:33;;;;;;;12.78;10.75;;;;;;;4.05;100.00;100830.22;1713685;82;21081;-78
2022/04/21 00:56:01;;;;;;;11.45;10.25;;;;;;;4.09;100.00;100830.48;1714605;82;21044;-77
2022/04/21 00:58:29;;;;;;;12.43;11.12;;;;;;;4.14;100.00;100832.01;1714497;82;21051;-77
2022/04/21 01:00:58;;;;;;;14.20;11.38;;;;;;;4.15;100.00;100834.54;1714772;82;21037;-78
2022/04/21 01:03:27;;;;;;;14.07;10.60;;;;;;;4.18;100.00;100825.36;1714388;82;21969;-77
2022/04/21 01:05:55;;;;;;;13.75;11.12;;;;;;;4.22;100.00;100829.48;1714083;82;21096;-80
2022/04/21 01:08:23;;;;;;;12.28;10.98;;;;;;;4.28;100.00;100826.23;1713844;82;21044;-78
2022/04/21 01:10:52;;;;;;;13.45;11.53;;;;;;;4.34;100.00;100825.95;1713880;82;21163;-77
2022/04/21 01:13:20;;;;;;;14.60;11.45;;;;;;;4.36;100.00;100823.72;1714025;82;21119;-78
2022/04/21 01:15:47;;;;;;;14.65;13.15;;;;;;;4.38;100.00;100819.77;1714386;82;21574;-77
2022/04/21 01:18:27;;;;;;;13.95;12.13;;;;;;;4.42;100.00;100826.44;1714361;82;21084;-77
2022/04/21 01:20:56;;;;;;;14.33;12.70;;;;;;;4.44;100.00;100825.10;1730579;82;21018;-78
2022/04/21 01:23:26;;;;;;;15.13;13.50;;;;;;;4.46;100.00;100817.67;1738594;82;21060;-80
2022/04/21 01:25:55;;;;;;;15.85;14.13;;;;;;;4.48;100.00;100818.88;1738808;82;21065;-77
2022/04/21 01:28:25;;;;;;;14.75;13.20;;;;;;;4.49;100.00;100817.98;1738485;81;21168;-77
2022/04/21 01:30:55;;;;;;;15.05;13.48;;;;;;;4.49;100.00;100818.80;1738282;81;21673;-77
2022/04/21 01:33:24;;;;;;;15.18;13.55;;;;;;;4.48;100.00;100815.87;1738978;81;21088;-76
2022/04/21 01:35:52;;;;;;;17.62;14.60;;;;;;;4.49;100.00;100819.27;1738545;82;21574;-78
2022/04/21 01:41:09;;;;;;;22.17;17.42;;;;;;;4.47;100.00;100814.19;1738952;82;21064;-77
2022/04/21 01:43:40;;;;;;;21.73;18.77;;;;;;;4.45;100.00;100819.86;1738704;82;20992;-79
2022/04/21 01:46:09;;;;;;;22.48;19.02;;;;;;;4.41;100.00;100828.20;1738447;81;21040;-77
2022/04/21 01:48:36;;;;;;;22.25;19.75;;;;;;;4.38;100.00;100830.91;1738667;82;21024;-79
2022/04/21 01:51:04;;;;;;;23.10;19.95;;;;;;;4.37;100.00;100824.07;1735224;81;21056;-79
2022/04/21 01:53:31;;;;;;;23.62;20.30;;;;;;;4.36;100.00;100830.16;1734741;81;21221;-79
2022/04/21 01:55:58;;;;;;;25.27;20.90;;;;;;;4.34;100.00;100833.25;1735771;82;21084;-80
2022/04/21 01:58:28;;;;;;;24.87;21.57;;;;;;;4.31;100.00;100841.58;1728789;81;21103;-76
2022/04/21 02:00:57;;;;;;;26.05;20.95;;;;;;;4.26;100.00;100840.03;1685244;83;21287;-78
2022/04/21 02:03:25;;;;;;;26.60;21.15;;;;;;;4.24;100.00;100844.88;1684541;85;21064;-77
2022/04/21 02:05:54;;;;;;;24.92;22.13;;;;;;;4.23;100.00;100844.48;1684630;83;21539;-77
2022/04/21 02:08:23;;;;;;;26.40;22.95;;;;;;;4.20;100.00;100839.49;1684641;85;21005;-77
2022/04/21 02:10:52;;;;;;;26.20;23.07;;;;;;;4.18;100.00;100839.54;1684105;85;21546;-76
2022/04/21 02:13:20;;;;;;;27.07;23.85;;;;;;;4.18;100.00;100849.84;1684512;85;21068;-76
2022/04/21 02:15:48;;;;;;;29.70;24.30;;;;;;;4.19;100.00;100846.84;1684390;82;21478;-77
2022/04/21 02:18:17;;;;;;;29.50;24.77;;;;;;;4.19;100.00;100851.52;1685357;85;21853;-77
2022/04/21 02:20:44;;;;;;;30.85;24.85;;;;;;;4.19;100.00;100857.97;1685951;85;21097;-76
2022/04/21 02:23:13;;;;;;;28.55;24.00;;;;;;;4.20;100.00;100858.83;1685740;83;21582;-77
2022/04/21 02:25:40;;;;;;;26.25;22.05;;;;;;;4.19;100.00;100859.73;1700674;81;21021;-76
2022/04/21 02:28:08;;;;;;;25.23;21.65;;;;;;;4.19;100.00;100861.02;1715398;82;21081;-77
2022/04/21 02:30:36;;;;;;;25.52;21.73;;;;;;;4.19;100.00;100859.73;1683107;83;21547;-76
2022/04/21 02:33:03;;;;;;;20.68;18.50;;;;;;;4.16;100.00;100856.84;1682916;84;21061;-80
2022/04/21 02:35:30;;;;;;;22.35;18.10;;;;;;;4.12;100.00;100854.46;1681379;83;21097;-81
2022/04/21 02:38:01;;;;;;;20.65;17.27;;;;;;;4.08;100.00;100864.89;1681138;83;21094;-77
2022/04/21 02:40:30;;;;;;;28.73;20.57;;;;;;;4.07;100.00;100860.64;1681039;83;21042;-77
2022/04/21 02:42:57;;;;;;;21.23;18.15;;;;;;;4.07;100.00;100859.81;1681059;83;21094;-77
2022/04/21 02:45:26;;;;;;;21.55;17.50;;;;;;;4.03;100.00;100859.12;1681024;83;21053;-80
2022/04/21 02:47:53;;;;;;;19.12;16.50;;;;;;;4.02;100.00;100859.16;1668960;84;21069;-81
2022/04/21 02:50:23;;;;;;;17.70;15.75;;;;;;;4.00;100.00;100863.56;1706478;82;21554;-77
2022/04/21 02:52:52;;;;;;;18.30;16.15;;;;;;;3.99;100.00;100864.00;1742231;81;21006;-77
2022/04/21 02:58:05;;;;;;;18.23;15.65;;;;;;;3.99;100.00;100866.58;1742213;81;21073;-77
2022/04/21 03:00:33;;;;;;;17.80;15.90;;;;;;;4.00;100.00;100866.97;1742076;81;21069;-77
2022/04/21 03:03:01;;;;;;;17.62;15.72;;;;;;;4.02;100.00;100876.77;1725300;82;21555;-77
2022/04/21 03:05:29;;;;;;;18.77;16.40;;;;;;;4.03;100.00;100873.72;1702102;84;21015;-79
2022/04/21 03:07:57;;;;;;;19.20;17.00;;;;;;;4.03;100.00;100872.44;1701935;83;21125;-76
2022/04/21 03:10:27;;;;;;;18.15;16.20;;;;;;;4.04;100.00;100871.10;1701713;83;21061;-77
2022/04/21 03:12:58;;;;;;;21.48;16.82;;;;;;;4.04;100.00;100864.66;1702096;83;22063;-77
2022/04/21 03:15:27;;;;;;;22.40;17.45;;;;;;;4.07;100.00;100868.37;1701701;84;21049;-80
2022/04/21 03:17:56;;;;;;;20.77;16.30;;;;;;;4.09;100.00;100874.30;1701853;83;21650;-77
2022/04/21 03:25:57;;;;;;;18.37;16.37;;;;;;;4.11;100.00;100869.07;1701550;83;21591;-79
2022/04/21 03:28:24;;;;;;;21.40;17.90;;;;;;;4.13;100.00;100869.84;1701796;83;21537;-77
2022/04/21 03:30:52;;;;;;;21.77;18.12;;;;;;;4.14;100.00;100868.09;1701769;83;21022;-77
2022/04/21 03:33:21;;;;;;;18.85;16.45;;;;;;;4.14;100.00;100862.94;1700953;83;21265;-79
2022/04/21 03:35:49;;;;;;;20.90;17.77;;;;;;;4.15;100.00;100872.34;1691606;84;21133;-80
2022/04/21 03:38:17;;;;;;;19.62;16.32;;;;;;;4.16;100.00;100872.73;1691640;84;21837;-81
2022/04/21 03:40:44;;;;;;;19.60;16.48;;;;;;;4.16;100.00;100868.87;1692259;84;21051;-79
2022/04/21 03:43:12;;;;;;;19.02;16.37;;;;;;;4.18;100.00;100874.34;1702056;84;21110;-78
2022/04/21 03:45:40;;;;;;;20.12;16.35;;;;;;;4.19;100.00;100872.61;1702108;83;21972;-77
2022/04/21 03:48:08;;;;;;;17.98;15.78;;;;;;;4.20;100.00;100873.00;1702071;83;21062;-81
2022/04/21 03:50:35;;;;;;;16.60;14.25;;;;;;;4.22;100.00;100866.02;1701402;83;21149;-78
2022/04/21 03:53:04;;;;;;;17.05;15.25;;;;;;;4.24;100.00;100865.50;1701649;83;21065;-77
2022/04/21 03:55:33;;;;;;;17.07;15.25;;;;;;;4.28;100.00;100866.20;1688827;83;21002;-77
2022/04/21 03:58:02;;;;;;;17.07;14.05;;;;;;;4.32;100.00;100871.15;1719016;82;21569;-79
2022/04/21 04:00:30;;;;;;;15.43;13.45;;;;;;;4.36;100.00;100866.69;1690296;84;21096;-77
2022/04/21 04:02:59;;;;;;;16.00;14.30;;;;;;;4.38;100.00;100865.71;1719112;81;21041;-77
2022/04/21 04:05:27;;;;;;;17.02;13.40;;;;;;;4.41;100.00;100865.59;1719453;83;21124;-77
2022/04/21 04:10:52;;;;;;;16.40;13.70;;;;;;;4.51;100.00;100875.48;1688619;84;21042;-81
2022/04/21 04:13:24;;;;;;;17.40;13.78;;;;;;;4.55;100.00;100867.98;1716401;82;21586;-77
2022/04/21 04:15:54;;;;;;;14.73;12.20;;;;;;;4.58;100.00;100883.33;1739939;80;20994;-77
2022/04/21 04:18:22;;;;;;;14.07;12.60;;;;;;;4.61;100.00;100875.42;1688751;83;21085;-76
2022/04/21 04:20:50;;;;;;;14.93;12.58;;;;;;;4.64;100.00;100880.46;1688845;83;21132;-78
2022/04/21 04:23:20;;;;;;;13.98;11.93;;;;;;;4.67;100.00;100882.91;1689190;83;21536;-79
2022/04/21 04:25:49;;;;;;;13.90;11.90;;;;;;;4.69;100.00;100886.23;1688771;83;21172;-78
2022/04/21 04:28:17;;;;;;;17.12;13.93;;;;;;;4.73;100.00;100888.22;1688463;83;21041;-77
2022/04/21 04:30:44;;;;;;;18.52;14.60;;;;;;;4.76;100.00;100895.00;1688837;83;21002;-77
2022/04/21 04:33:14;;;;;;;19.75;16.12;;;;;;;4.76;100.00;100897.58;1688640;83;21042;-77
2022/04/21 04:35:42;;;;;;;19.87;17.32;;;;;;;4.78;100.00;100897.03;1688663;83;21224;-79
2022/04/21 04:38:11;;;;;;;23.90;18.50;;;;;;;4.81;100.00;100900.77;1688673;83;21019;-78
2022/04/21 04:40:39;;;;;;;24.55;19.87;;;;;;;4.82;100.00;100898.11;1689317;83;21034;-78
2022/04/21 04:43:06;;;;;;;29.35;20.80;;;;;;;4.86;100.00;100893.64;1689319;83;21052;-77
2022/04/21 04:48:20;;;;;;;32.40;23.55;;;;;;;4.93;100.00;100891.16;1688463;83;21751;-77
2022/04/21 04:50:47;;;;;;;35.75;25.05;;;;;;;4.98;100.00;100890.94;1743365;81;21554;-79
2022/04/21 04:53:16;;;;;;;35.95;25.40;;;;;;;5.01;100.00;100892.92;1733725;82;21023;-76
2022/04/21 04:55:44;;;;;;;39.48;26.12;;;;;;;5.07;100.00;100891.80;1733906;82;21918;-77
2022/04/21 04:58:13;;;;;;;35.45;25.48;;;;;;;5.12;100.00;100895.02;1734368;82;21573;-78
2022/04/21 05:00:41;;;;;;;37.88;25.12;;;;;;;5.17;100.00;100888.31;1733983;82;21826;-77
2022/04/21 05:03:09;;;;;;;34.33;23.60;;;;;;;5.21;100.00;100889.86;1734001;82;21012;-77
2022/04/21 05:05:36;;;;;;;36.60;24.27;;;;;;;5.28;100.00;100892.52;1734782;82;20972;-76
2022/04/21 05:08:06;;;;;;;32.95;23.52;;;;;;;5.34;100.00;100896.09;1733916;82;21031;-77
2022/04/21 05:10:33;;;;;;;34.67;22.85;;;;;;;5.42;100.00;100898.75;1734195;82;21379;-76
2022/04/21 05:13:01;;;;;;;29.65;21.25;;;;;;;5.50;100.00;100901.80;1733854;82;21091;-79
2022/04/21 05:15:30;;;;;;;25.60;20.05;;;;;;;5.56;100.00;100900.22;1733932;82;21604;-78
2022/04/21 05:18:01;;;;;;;23.50;18.52;;;;;;;5.60;100.00;100899.14;1733815;82;21087;-77
2022/04/21 05:20:29;;;;;;;24.45;17.90;;;;;;;5.66;100.00;100901.41;1734467;82;21131;-79
2022/04/21 05:23:06;;;;;;;20.30;17.55;;;;;;;5.74;100.00;100896.31;1734108;82;21440;-79
2022/04/21 05:25:36;;;;;;;21.93;17.85;;;;;;;5.85;100.00;100903.08;1733784;82;40353;-76
2022/04/21 05:28:09;;;;;;;23.60;19.03;;;;;;;5.98;100.00;100901.53;1733806;82;21562;-77
2022/04/21 05:30:56;;;;;;;22.13;17.65;;;;;;;6.19;100.00;100907.85;1694145;82;21085;-77
2022/04/21 05:33:29;;;;;;;22.17;16.10;;;;;;;6.46;100.00;100908.59;1701417;82;21021;-79
2022/04/21 05:36:01;;;;;;;18.82;16.35;;;;;;;6.77;100.00;100912.97;1678819;85;21595;-78
2022/04/21 05:38:29;;;;;;;20.17;16.60;;;;;;;6.95;100.00;100910.30;1709218;83;21778;-77
2022/04/21 05:40:58;;;;;;;21.23;17.12;;;;;;;6.99;100.00;100910.95;1703768;82;20977;-77
2022/04/21 05:43:34;;;;;;;19.90;16.15;;;;;;;6.93;100.00;100904.36;1672855;85;21131;-78
2022/04/21 05:46:00;;;;;;;18.35;16.45;;;;;;;6.86;100.00;100915.50;1669873;85;21056;-78
2022/04/21 05:48:28;;;;;;;20.25;17.48;;;;;;;6.79;100.00;100914.17;1672914;85;21488;-79
2022/04/21 05:50:55;;;;;;;25.02;17.32;;;;;;;6.72;100.00;100911.09;1689120;80;22627;-79
2022/04/21 05:53:26;;;;;;;20.57;17.30;;;;;;;6.66;100.00;100911.87;1744197;81;21014;-79
2022/04/21 05:55:54;;;;;;;;;;;;;;;6.66;100.00;100909.29;1744244;81;21284;-77
2022/04/21 05:58:26;;;;;;;23.57;16.95;;;;;;;6.71;100.00;100909.86;1741764;81;20202;-77
2022/04/21 06:00:53;;;;;;;;;;;;;;;6.77;100.00;100901.79;1744172;82;21104;-78
2022/04/21 06:03:22;;;;;;;18.82;15.40;;;;;;;6.89;100.00;100903.69;1741827;81;21169;-78
2022/04/21 06:05:50;;;;;;;16.80;14.90;;;;;;;7.07;100.00;100900.53;1720342;81;21113;-77
2022/04/21 06:08:18;;;;;;;17.20;15.48;;;;;;;7.28;100.00;100905.45;1708637;82;21082;-76
2022/04/21 06:10:46;;;;;;;20.77;15.68;;;;;;;7.42;100.00;100897.72;1678754;84;21499;-82
2022/04/21 06:13:15;;;;;;;16.32;14.65;;;;;;;7.53;100.00;100896.27;1683696;83;21164;-77
2022/04/21 06:18:12;;;;;;;17.25;15.38;;;;;;;7.68;100.00;100892.79;1707251;83;21086;-77
2022/04/21 06:20:40;;;;;;;16.27;13.40;;;;;;;7.84;100.00;100887.52;1707791;82;21053;-77
2022/04/21 06:23:08;;;;;;;15.88;14.23;;;;;;;8.07;100.00;100898.75;1680732;84;21669;-82
2022/04/21 06:25:38;;;;;;;16.80;15.10;;;;;;;8.28;100.00;100887.54;1678688;84;21731;-78
2022/04/21 06:28:07;;;;;;;17.73;15.83;;;;;;;8.45;100.00;100887.31;1678770;84;21148;-77
2022/04/21 06:30:36;;;;;;;20.40;16.30;;;;;;;8.58;100.00;100879.62;1705794;82;21042;-77
2022/04/21 06:33:03;;;;;;;17.80;15.55;;;;;;;8.71;100.00;100887.97;1705044;83;21093;-77
2022/04/21 06:35:32;;;;;;;16.23;13.08;;;;;;;8.81;100.00;100882.56;1709034;81;21108;-78
2022/04/21 06:38:00;;;;;;;13.48;12.18;;;;;;;8.86;100.00;100888.30;1684024;83;21662;-77
2022/04/21 06:40:27;;;;;;;15.45;12.98;;;;;;;8.91;100.00;100880.21;1679071;84;21246;-77
2022/04/21 06:42:54;;;;;;;13.50;11.90;;;;;;;8.93;100.00;100880.47;1678868;84;21007;-77
2022/04/21 06:48:09;;;;;;;13.38;11.88;;;;;;;8.74;100.00;100880.81;1676212;84;21085;-77
2022/04/21 06:50:39;;;;;;;16.07;12.35;;;;;;;8.58;100.00;100886.59;1705480;83;21061;-77
2022/04/21 06:53:09;;;;;;;14.30;12.80;;;;;;;8.44;100.00;100890.86;1708504;82;21139;-80
2022/04/21 06:55:38;;;;;;;16.52;13.93;;;;;;;8.32;100.00;100884.67;1720314;80;21314;-78
2022/04/21 06:58:07;;;;;;;16.77;13.95;;;;;;;8.27;100.00;100887.17;1692742;83;21086;-78
2022/04/21 07:00:35;;;;;;;17.10;14.90;;;;;;;8.23;100.00;100890.86;1740440;80;21083;-77
2022/04/21 07:03:07;;;;;;;16.70;14.98;;;;;;;8.20;100.00;100890.59;1733830;82;21094;-78
2022/04/21 07:05:33;;;;;;;17.07;15.28;;;;;;;8.25;100.00;100894.20;1734885;81;21064;-77
2022/04/21 07:08:03;;;;;;;17.07;15.28;;;;;;;8.38;100.00;100889.92;1714690;83;21537;-79
2022/04/21 07:10:32;;;;;;;16.85;15.05;;;;;;;8.55;100.00;100891.97;1713957;82;21551;-79
2022/04/21 07:13:10;;;;;;;18.95;16.37;;;;;;;8.71;100.00;100893.98;1713097;82;21065;-77
2022/04/21 07:15:41;;;;;;;14.40;12.90;;;;;;;8.84;100.00;100890.99;1714286;83;21085;-80
2022/04/21 07:18:10;;;;;;;13.50;11.97;;;;;;;8.96;100.00;100886.78;1684461;83;21130;-77
2022/04/21 07:20:40;;;;;;;12.90;11.05;;;;;;;9.04;100.00;100883.67;1730385;81;21120;-77
2022/04/21 07:23:08;;;;;;;12.20;10.58;;;;;;;9.18;100.00;100877.59;1731395;81;21060;-77
2022/04/21 07:25:36;;;;;;;12.40;9.83;;;;;;;9.31;100.00;100881.05;1707713;82;21014;-77
2022/04/21 07:28:05;;;;;;;10.98;9.88;;;;;;;9.44;100.00;100895.38;1707717;84;21646;-77
2022/04/21 07:30:34;;;;;;;11.75;10.50;;;;;;;9.54;100.00;100877.87;1707341;84;21586;-81
2022/04/21 07:33:02;;;;;;;10.80;9.70;;;;;;;9.61;100.00;100872.14;1707108;84;21590;-81
2022/04/21 07:35:30;;;;;;;11.10;10.00;;;;;;;9.70;100.00;100864.20;1707677;84;21081;-78
2022/04/21 07:37:58;;;;;;;15.23;12.58;;;;;;;9.85;100.00;100865.40;1708132;84;21053;-77
2022/04/21 07:40:26;;;;;;;9.40;8.45;;;;;;;9.98;100.00;100866.70;1707569;84;21116;-80
2022/04/21 07:42:53;;;;;;;57.08;36.08;;;;;;;10.14;100.00;100866.00;1707864;84;21138;-79
2022/04/21 07:45:22;;;;;;;35.58;28.77;;;;;;;10.24;100.00;100871.39;1708431;82;21061;-81
2022/04/21 07:47:49;;;;;;;43.30;32.85;;;;;;;10.29;100.00;100868.02;1710376;82;21045;-82
2022/04/21 07:50:16;;;;;;;59.10;29.12;;;;;;;10.36;100.00;100866.65;1713148;81;21649;-79
2022/04/21 07:55:30;;;;;;;22.82;12.85;;;;;;;10.54;100.00;100860.63;1684610;83;22079;-77
2022/04/21 07:57:58;;;;;;;15.28;12.30;;;;;;;10.64;100.00;100857.37;1712438;82;22074;-80
2022/04/21 08:00:25;;;;;;;9.15;7.28;;;;;;;10.72;100.00;100856.36;1661516;84;21052;-79
2022/04/21 08:02:53;;;;;;;6.45;5.75;;;;;;;10.79;100.00;100859.33;1710690;83;21124;-81
2022/04/21 08:05:23;;;;;;;8.60;6.40;;;;;;;10.87;100.00;100846.58;1710743;82;21042;-80
2022/04/21 08:07:52;;;;;;;6.60;5.97;;;;;;;10.93;100.00;100859.19;1710715;83;21141;-79
2022/04/21 08:10:20;;;;;;;5.97;5.37;;;;;;;10.94;100.00;100853.00;1704524;83;21121;-79
2022/04/21 08:13:01;;;;;;;7.75;5.33;;;;;;;10.88;100.00;100861.27;1682490;84;21595;-80
2022/04/21 08:15:29;;;;;;;6.90;5.85;;;;;;;10.81;100.00;100845.73;1682746;84;21073;-80
2022/04/21 08:18:00;;;;;;;9.38;6.47;;;;;;;10.79;100.00;100851.52;1687725;84;21642;-80
2022/04/21 08:20:32;;;;;;;7.58;6.47;;;;;;;10.83;100.00;100851.67;1678513;83;21158;-78
2022/04/21 08:23:00;;;;;;;7.37;6.78;;;;;;;10.90;100.00;100852.88;1699372;83;21003;-77
2022/04/21 08:33:47;;;;;;;7.47;6.50;;;;;;;11.09;100.00;100857.58;1680390;84;21996;-79
2022/04/21 08:36:15;;;;;;;7.28;6.10;;;;;;;11.05;100.00;100863.97;1641153;85;21382;-78
2022/04/21 08:38:44;;;;;;;10.08;6.85;;;;;;;11.02;100.00;100856.37;1683900;84;21031;-79
2022/04/21 08:41:18;;;;;;;6.75;6.15;;;;;;;10.99;100.00;100862.64;1672193;84;21053;-81
2022/04/21 08:43:47;;;;;;;7.10;6.40;;;;;;;11.02;100.00;100860.28;1661711;84;21686;-78
2022/04/21 08:46:21;;;;;;;7.10;6.40;;;;;;;11.16;100.00;100856.66;1678468;85;21050;-80
2022/04/21 08:48:51;;;;;;;11.65;7.17;;;;;;;11.30;100.00;100853.02;1678692;85;21100;-78
2022/04/21 08:51:20;;;;;;;7.62;6.92;;;;;;;11.44;100.00;100861.11;1678076;85;21524;-77
2022/04/21 08:53:49;;;;;;;8.60;6.87;;;;;;;11.54;100.00;100852.97;1678310;83;20994;-77
2022/04/21 08:56:20;;;;;;;7.95;6.90;;;;;;;11.53;100.00;100856.52;1684492;83;21046;-82
2022/04/21 08:58:48;;;;;;;10.75;7.42;;;;;;;11.42;100.00;100857.78;1693058;83;21245;-77
2022/04/21 09:01:19;;;;;;;8.23;6.87;;;;;;;11.29;100.00;100863.11;1706195;83;21148;-77
2022/04/21 09:03:49;;;;;;;7.30;6.60;;;;;;;11.18;100.00;100864.72;1705751;82;21105;-80
2022/04/21 09:06:22;;;;;;;8.10;7.03;;;;;;;11.22;100.00;100860.11;1702620;82;21520;-77
2022/04/21 09:09:14;;;;;;;8.33;7.05;;;;;;;11.38;100.00;100856.36;1701698;82;21105;-77
2022/04/21 09:11:43;;;;;;;8.08;7.22;;;;;;;11.50;100.00;100856.28;1719979;82;21140;-78
2022/04/21 09:14:17;;;;;;;9.08;7.28;;;;;;;11.48;100.00;100853.44;1702747;81;21125;-79
2022/04/21 09:16:48;;;;;;;9.33;7.67;;;;;;;11.38;100.00;100852.45;1698966;82;21082;-81
2022/04/21 09:19:16;;;;;;;10.63;8.53;;;;;;;11.31;100.00;100847.70;1718750;82;21711;-81
2022/04/21 09:21:44;;;;;;;11.45;8.35;;;;;;;11.30;100.00;100841.28;1722056;82;21559;-78
2022/04/21 09:24:27;;;;;;;8.40;7.17;;;;;;;11.29;100.00;100853.50;1711097;81;20999;-77
2022/04/21 09:26:57;;;;;;;7.80;7.10;;;;;;;11.36;100.00;100846.06;1663641;82;21059;-80
2022/04/21 09:29:30;;;;;;;8.50;6.70;;;;;;;11.53;100.00;100838.27;1706445;82;21184;-79
2022/04/21 09:32:02;;;;;;;7.83;6.80;;;;;;;11.66;100.00;100844.20;1680149;83;21050;-77
2022/04/21 09:34:31;;;;;;;7.05;6.28;;;;;;;11.77;100.00;100838.19;1702817;81;21101;-78
2022/04/21 09:37:00;;;;;;;6.70;6.10;;;;;;;11.89;100.00;100837.72;1680443;84;21297;-79
2022/04/21 09:39:28;;;;;;;6.60;6.00;;;;;;;12.03;100.00;100839.75;1705859;82;21026;-81
2022/04/21 09:41:56;;;;;;;6.78;5.80;;;;;;;12.10;100.00;100840.44;1707031;82;21054;-79
2022/04/21 09:47:30;;;;;;;7.20;5.70;;;;;;;11.98;100.00;100838.80;1725926;82;21133;-80
2022/04/21 09:50:14;;;;;;;6.03;5.42;;;;;;;11.88;100.00;100839.97;1708169;82;21128;-82
2022/04/21 09:52:52;;;;;;;8.03;6.17;;;;;;;11.77;100.00;100846.47;1728721;82;21069;-78
2022/04/21 09:55:27;;;;;;;5.45;4.92;;;;;;;11.64;100.00;100844.81;1729179;82;21160;-78
2022/04/21 09:58:09;;;;;;;5.92;4.33;;;;;;;11.59;100.00;100846.92;1729266;82;21031;-78
2022/04/21 10:00:39;;;;;;;5.03;4.53;;;;;;;11.62;100.00;100842.78;1728589;82;21054;-77
2022/04/21 10:03:08;;;;;;;5.65;5.08;;;;;;;11.76;100.00;100850.87;1729160;82;21164;-78
2022/04/21 10:05:42;;;;;;;8.83;6.17;;;;;;;11.84;100.00;100845.05;1702373;83;21843;-80
2022/04/21 10:08:12;;;;;;;7.12;5.40;;;;;;;11.88;100.00;100847.80;1702601;82;21170;-78
2022/04/21 10:10:42;;;;;;;5.50;5.00;;;;;;;11.91;100.00;100844.11;1700584;82;21035;-79
2022/04/21 10:13:14;;;;;;;5.67;4.85;;;;;;;11.93;100.00;100834.39;1698695;83;21156;-78
2022/04/21 10:15:43;;;;;;;5.28;4.78;;;;;;;11.94;100.00;100837.33;1698898;83;21251;-79
2022/04/21 10:18:16;;;;;;;7.08;5.60;;;;;;;11.91;100.00;100848.84;1685483;82;21517;-80
2022/04/21 10:20:45;;;;;;;7.60;5.60;;;;;;;11.90;100.00;100841.14;1717397;82;21022;-79
2022/04/21 10:23:19;;;;;;;8.48;5.53;;;;;;;11.87;100.00;100844.83;1706860;82;21575;-81
2022/04/21 10:26:00;;;;;;;6.17;5.28;;;;;;;11.85;100.00;100848.02;1702841;83;21062;-79
2022/04/21 10:28:48;;;;;;;6.67;5.47;;;;;;;11.86;100.00;100848.38;1698712;84;21871;-79
2022/04/21 10:31:33;;;;;;;5.17;4.67;;;;;;;11.87;100.00;100851.80;1694013;84;21058;-79
2022/04/21 10:34:07;;;;;;;5.10;4.33;;;;;;;11.87;100.00;100846.13;1699055;82;21149;-79
2022/04/21 10:36:46;;;;;;;4.40;4.00;;;;;;;11.86;100.00;100852.78;1704325;82;21368;-79
2022/04/21 10:39:23;;;;;;;5.55;5.05;;;;;;;11.90;100.00;100857.61;1688319;82;22056;-80
2022/04/21 10:42:13;;;;;;;6.05;4.35;;;;;;;11.96;100.00;100854.55;1692233;82;21632;-78
2022/04/21 10:44:48;;;;;;;;;;;;;;;12.07;100.00;100852.91;1708312;82;21357;-78
2022/04/21 10:47:38;;;;;;;4.72;4.20;;;;;;;12.14;100.00;100856.23;1705834;83;20173;-80
2022/04/21 10:50:20;;;;;;;4.40;4.00;;;;;;;12.17;100.00;100853.86;1684414;83;21070;-79
2022/04/21 10:58:47;;;;;;;4.60;3.80;;;;;;;12.12;100.00;100862.05;1706963;83;21153;-79
2022/04/21 11:01:31;;;;;;;4.45;4.05;;;;;;;12.08;100.00;100865.86;1696005;83;21136;-78
2022/04/21 11:04:19;;;;;;;4.55;4.15;;;;;;;12.07;100.00;100862.04;1702568;83;21587;-79
2022/04/21 11:06:51;;;;;;;4.33;3.92;;;;;;;12.03;100.00;100867.16;1703185;83;21066;-77
2022/04/21 11:09:48;;;;;;;5.28;4.03;;;;;;;11.96;100.00;100865.45;1701467;82;21780;-83
2022/04/21 11:12:44;;;;;;;4.40;4.00;;;;;;;11.92;100.00;100864.05;1700611;82;21076;-78
2022/04/21 11:15:33;;;;;;;4.90;4.40;;;;;;;11.86;100.00;100860.12;1700615;82;21036;-77
2022/04/21 11:18:12;;;;;;;4.40;3.40;;;;;;;11.77;100.00;100868.19;1704359;82;21624;-80
2022/04/21 11:20:43;;;;;;;4.47;3.60;;;;;;;11.63;100.00;100869.23;1699723;84;21024;-78
2022/04/21 11:23:31;;;;;;;3.37;3.08;;;;;;;11.50;100.00;100873.23;1700623;82;21146;-78
2022/04/21 11:26:08;;;;;;;3.72;3.42;;;;;;;11.37;100.00;100872.49;1708703;82;21037;-78
2022/04/21 11:28:48;;;;;;;3.83;3.08;;;;;;;11.29;100.00;100876.14;1711181;82;21567;-79
2022/04/21 11:31:22;;;;;;;3.70;3.40;;;;;;;11.24;100.00;100884.30;1682132;81;21107;-80
2022/04/21 11:33:49;;;;;;;3.20;2.90;;;;;;;11.23;100.00;100883.94;1681664;83;21092;-81
2022/04/21 11:36:18;;;;;;;4.10;3.02;;;;;;;11.26;100.00;100889.39;1685112;82;21045;-80
2022/04/21 11:38:52;;;;;;;3.15;2.90;;;;;;;11.30;100.00;100889.51;1714190;81;21038;-79
2022/04/21 11:41:23;;;;;;;3.95;3.40;;;;;;;11.36;100.00;100883.38;1677172;84;21170;-80
2022/04/21 11:43:51;;;;;;;4.22;2.90;;;;;;;11.43;100.00;100886.83;1702290;82;21082;-81
2022/04/21 11:46:22;;;;;;;6.15;5.30;;;;;;;11.51;100.00;100885.78;1707153;82;21050;-79
2022/04/21 11:49:00;;;;;;;6.50;5.70;;;;;;;11.57;100.00;100878.83;1696088;81;21756;-80
2022/04/21 11:51:29;;;;;;;4.60;4.30;;;;;;;11.66;100.00;100883.32;1709241;83;21089;-80
2022/04/21 11:54:05;;;;;;;4.03;3.60;;;;;;;11.76;100.00;100881.33;1710538;81;21064;-79
2022/04/21 11:56:34;;;;;;;5.20;3.50;;;;;;;11.81;100.00;100883.13;1713365;83;21846;-83
2022/04/21 11:59:09;;;;;;;6.20;3.60;;;;;;;11.84;100.00;100876.36;1713702;82;21061;-83
2022/04/21 12:07:17;;;;;;;2.87;2.67;;;;;;;12.08;100.00;100872.84;1710341;83;21471;-84
2022/04/21 12:09:48;;;;;;;3.10;2.80;;;;;;;12.10;100.00;100874.37;1710500;82;21057;-79
2022/04/21 12:12:20;;;;;;;2.80;2.60;;;;;;;12.07;100.00;100879.85;1700767;82;21555;-79
2022/04/21 12:14:49;;;;;;;3.15;2.47;;;;;;;11.98;100.00;100885.78;1653107;83;21343;-80